createdAt,value
2019-06-27T00:00:35.488Z,101343.08
2019-06-27T00:03:05.648Z,101344.64
2019-06-27T00:05:35.275Z,101352.23
2019-06-27T00:08:04.947Z,101354.02
2019-06-27T00:10:35.145Z,101350.34
2019-06-27T00:13:04.932Z,101356.55
2019-06-27T00:15:34.658Z,101360.76
2019-06-27T00:18:04.388Z,101353.34
2019-06-27T00:20:34.192Z,101365.38
2019-06-27T00:23:03.897Z,101360.06
2019-06-27T00:25:33.531Z,101363.89
2019-06-27T00:28:03.322Z,101361.10
2019-06-27T00:30:33.455Z,101371.55
2019-06-27T00:33:03.145Z,101372.77
2019-06-27T00:35:32.779Z,101366.17
2019-06-27T00:38:02.451Z,101373.00
2019-06-27T00:40:32.079Z,101378.11
2019-06-27T00:43:02.013Z,101373.15
2019-06-27T00:45:31.689Z,101375.33
2019-06-27T00:48:01.309Z,101382.14
2019-06-27T00:50:30.932Z,101371.61
2019-06-27T00:53:00.592Z,101378.00
2019-06-27T00:55:30.206Z,101369.89
2019-06-27T00:57:59.829Z,101368.58
2019-06-27T01:00:29.498Z,101377.44
2019-06-27T01:02:59.119Z,101377.30
2019-06-27T01:05:28.813Z,101374.77
2019-06-27T01:07:58.514Z,101377.45
2019-06-27T01:10:28.140Z,101381.30
2019-06-27T01:12:57.768Z,101374.45
2019-06-27T01:15:27.516Z,101372.35
2019-06-27T01:17:57.410Z,101376.17
2019-06-27T01:20:27.035Z,101382.33
2019-06-27T01:22:56.954Z,101388.63
2019-06-27T01:25:27.140Z,101392.84
2019-06-27T01:27:56.773Z,101386.80
2019-06-27T01:30:27.481Z,101391.84
2019-06-27T01:32:57.078Z,101400.05
2019-06-27T01:35:26.698Z,101403.20
2019-06-27T01:37:56.359Z,101396.72
2019-06-27T01:40:26.462Z,101387.94
2019-06-27T01:42:56.657Z,101389.58
2019-06-27T01:45:28.005Z,101374.69
2019-06-27T01:47:57.630Z,101380.80
2019-06-27T01:50:27.264Z,101384.66
2019-06-27T01:52:56.945Z,101386.60
2019-06-27T01:55:27.527Z,101382.42
2019-06-27T01:57:57.157Z,101394.72
2019-06-27T02:00:27.434Z,101393.66
2019-06-27T02:02:57.068Z,101401.12
2019-06-27T02:05:26.723Z,101401.22
2019-06-27T02:07:56.430Z,101403.57
2019-06-27T02:10:26.064Z,101401.71
2019-06-27T02:12:55.867Z,101406.89
2019-06-27T02:15:27.622Z,101411.39
2019-06-27T02:17:57.265Z,101406.89
2019-06-27T02:20:27.434Z,101406.72
2019-06-27T02:22:57.317Z,101415.80
2019-06-27T02:25:27.087Z,101416.95
2019-06-27T02:28:03.691Z,101416.13
2019-06-27T02:30:39.817Z,101417.98
2019-06-27T02:33:09.655Z,101424.22
2019-06-27T02:35:39.420Z,101421.69
2019-06-27T02:38:09.609Z,101421.98
2019-06-27T02:40:39.313Z,101428.00
2019-06-27T02:43:09.034Z,101429.70
2019-06-27T02:45:38.687Z,101420.66
2019-06-27T02:48:08.384Z,101424.84
2019-06-27T02:50:38.003Z,101420.31
2019-06-27T02:53:08.348Z,101427.27
2019-06-27T02:55:38.656Z,101427.73
2019-06-27T02:58:29.133Z,101429.27
2019-06-27T03:00:39.945Z,101429.00
2019-06-27T03:03:09.746Z,101434.03
2019-06-27T03:05:39.634Z,101427.33
2019-06-27T03:08:09.570Z,101427.06
2019-06-27T03:10:39.285Z,101423.11
2019-06-27T03:13:08.911Z,101424.88
2019-06-27T03:15:38.859Z,101425.30
2019-06-27T03:18:09.329Z,101410.21
2019-06-27T03:20:39.012Z,101415.60
2019-06-27T03:23:08.793Z,101416.63
2019-06-27T03:25:38.425Z,101417.54
2019-06-27T03:28:08.417Z,101424.84
2019-06-27T03:30:38.158Z,101422.20
2019-06-27T03:33:07.959Z,101425.70
2019-06-27T03:35:37.584Z,101430.85
2019-06-27T03:38:07.249Z,101428.70
2019-06-27T03:40:36.948Z,101425.55
2019-06-27T03:43:06.980Z,101425.69
2019-06-27T03:45:36.689Z,101413.25
2019-06-27T03:48:06.395Z,101426.10
2019-06-27T03:50:36.030Z,101434.34
2019-06-27T03:53:05.759Z,101431.38
2019-06-27T03:55:35.389Z,101433.76
2019-06-27T03:58:05.117Z,101432.41
2019-06-27T04:00:35.095Z,101442.92
2019-06-27T04:03:04.791Z,101437.38
2019-06-27T04:05:34.433Z,101438.06
2019-06-27T04:08:05.259Z,101438.06
2019-06-27T04:10:35.062Z,101428.32
2019-06-27T04:13:04.684Z,101437.59
2019-06-27T04:15:34.793Z,101432.56
2019-06-27T04:18:04.564Z,101442.77
2019-06-27T04:20:34.201Z,101437.95
2019-06-27T04:23:04.720Z,101440.05
2019-06-27T04:25:34.357Z,101445.11
2019-06-27T04:28:03.981Z,101449.13
2019-06-27T04:30:34.168Z,101440.89
2019-06-27T04:33:03.801Z,101443.58
2019-06-27T04:35:33.560Z,101449.81
2019-06-27T04:38:04.410Z,101453.28
2019-06-27T04:40:34.046Z,101450.59
2019-06-27T04:43:05.842Z,101451.74
2019-06-27T04:45:35.248Z,101448.21
2019-06-27T04:48:04.867Z,101450.08
2019-06-27T04:50:34.505Z,101448.76
2019-06-27T04:53:04.188Z,101456.16
2019-06-27T04:55:33.823Z,101450.86
2019-06-27T04:58:03.460Z,101457.19
2019-06-27T05:00:33.141Z,101459.20
2019-06-27T05:03:02.771Z,101443.47
2019-06-27T05:05:32.413Z,101456.45
2019-06-27T05:08:02.209Z,101448.42
2019-06-27T05:10:31.822Z,101454.88
2019-06-27T05:13:01.617Z,101460.95
2019-06-27T05:15:32.713Z,101461.66
2019-06-27T05:18:02.691Z,101464.36
2019-06-27T05:20:32.679Z,101461.30
2019-06-27T05:23:02.403Z,101476.02
2019-06-27T05:25:32.096Z,101480.63
2019-06-27T05:28:01.732Z,101472.84
2019-06-27T05:30:31.400Z,101484.51
2019-06-27T05:33:01.050Z,101484.00
2019-06-27T05:35:31.018Z,101486.65
2019-06-27T05:38:00.772Z,101501.28
2019-06-27T05:40:30.556Z,101487.70
2019-06-27T05:43:01.839Z,101493.77
2019-06-27T05:45:31.542Z,101493.75
2019-06-27T05:48:01.245Z,101490.66
2019-06-27T05:50:31.444Z,101494.23
2019-06-27T05:53:01.100Z,101497.80
2019-06-27T05:55:31.407Z,101494.73
2019-06-27T05:58:01.080Z,101498.83
2019-06-27T06:00:30.864Z,101503.19
2019-06-27T06:03:00.569Z,101505.78
2019-06-27T06:05:30.185Z,101502.81
2019-06-27T06:07:59.906Z,101506.46
2019-06-27T06:10:29.534Z,101510.84
2019-06-27T06:13:00.009Z,101514.38
2019-06-27T06:15:29.685Z,101520.50
2019-06-27T06:17:59.320Z,101523.15
2019-06-27T06:20:29.072Z,101523.06
2019-06-27T06:22:58.796Z,101524.83
2019-06-27T06:25:28.417Z,101529.53
2019-06-27T06:27:58.144Z,101531.55
2019-06-27T06:30:43.133Z,101526.01
2019-06-27T06:32:59.110Z,101529.49
2019-06-27T06:35:28.758Z,101527.03
2019-06-27T06:37:58.442Z,101521.38
2019-06-27T06:40:28.065Z,101527.39
2019-06-27T06:43:00.404Z,101535.73
2019-06-27T06:45:29.370Z,101539.72
2019-06-27T06:47:58.974Z,101535.47
2019-06-27T06:50:28.860Z,101531.23
2019-06-27T06:52:58.599Z,101553.86
2019-06-27T06:55:28.644Z,101541.54
2019-06-27T06:57:58.268Z,101544.23
2019-06-27T07:00:28.018Z,101545.08
2019-06-27T07:02:57.618Z,101547.70
2019-06-27T07:05:27.701Z,101552.99
2019-06-27T07:07:57.402Z,101552.59
2019-06-27T07:10:27.016Z,101555.07
2019-06-27T07:12:56.657Z,101553.66
2019-06-27T07:15:26.810Z,101550.80
2019-06-27T07:17:56.430Z,101557.30
2019-06-27T07:20:26.053Z,101545.91
2019-06-27T07:22:55.720Z,101550.72
2019-06-27T07:25:25.356Z,101549.31
2019-06-27T07:27:55.065Z,101561.53
2019-06-27T07:30:24.767Z,101560.66
2019-06-27T07:32:56.045Z,101571.59
2019-06-27T07:35:25.910Z,101568.69
2019-06-27T07:37:55.589Z,101569.30
2019-06-27T07:40:25.582Z,101568.84
2019-06-27T07:42:55.573Z,101573.19
2019-06-27T07:45:25.272Z,101580.95
2019-06-27T07:47:54.966Z,101581.79
2019-06-27T07:50:24.733Z,101579.41
2019-06-27T07:52:54.402Z,101585.78
2019-06-27T07:55:24.259Z,101590.49
2019-06-27T07:57:53.929Z,101586.61
2019-06-27T08:00:23.936Z,101588.73
2019-06-27T08:02:53.554Z,101591.31
2019-06-27T08:05:23.199Z,101589.98
2019-06-27T08:07:52.910Z,101592.78
2019-06-27T08:10:22.552Z,101595.27
2019-06-27T08:12:52.166Z,101603.41
2019-06-27T08:15:21.912Z,101603.55
2019-06-27T08:17:51.892Z,101608.16
2019-06-27T08:20:21.607Z,101608.73
2019-06-27T08:22:51.975Z,101618.41
2019-06-27T08:25:21.687Z,101619.82
2019-06-27T08:27:51.574Z,101612.63
2019-06-27T08:30:21.505Z,101617.95
2019-06-27T08:32:51.856Z,101615.00
2019-06-27T08:35:21.477Z,101618.53
2019-06-27T08:37:51.185Z,101619.97
2019-06-27T08:40:21.052Z,101623.81
2019-06-27T08:42:50.671Z,101629.93
2019-06-27T08:45:20.332Z,101629.50
2019-06-27T08:47:49.991Z,101637.73
2019-06-27T08:50:19.973Z,101637.23
2019-06-27T08:52:49.681Z,101647.13
2019-06-27T08:55:19.396Z,101649.72
2019-06-27T08:57:49.097Z,101646.91
2019-06-27T09:00:18.851Z,101646.20
2019-06-27T09:02:48.479Z,101650.19
2019-06-27T09:05:18.088Z,101654.58
2019-06-27T09:07:47.764Z,101658.82
2019-06-27T09:10:17.924Z,101662.67
2019-06-27T09:12:47.656Z,101669.17
2019-06-27T09:15:17.554Z,101675.08
2019-06-27T09:17:47.188Z,101671.44
2019-06-27T09:20:17.258Z,101683.33
2019-06-27T09:22:47.024Z,101687.23
2019-06-27T09:25:16.882Z,101689.59
2019-06-27T09:27:46.604Z,101690.56
2019-06-27T09:30:18.035Z,101688.80
2019-06-27T09:32:48.137Z,101705.86
2019-06-27T09:35:17.929Z,101700.56
2019-06-27T09:37:47.603Z,101707.03
2019-06-27T09:40:18.027Z,101702.69
2019-06-27T09:42:48.126Z,101703.26
2019-06-27T09:45:18.395Z,101708.80
2019-06-27T09:47:48.036Z,101715.49
2019-06-27T09:50:21.430Z,101712.20
2019-06-27T09:52:49.263Z,101707.86
2019-06-27T09:55:20.599Z,101714.19
2019-06-27T09:57:50.571Z,101721.23
2019-06-27T10:00:21.473Z,101718.62
2019-06-27T10:02:51.105Z,101715.56
2019-06-27T10:05:20.742Z,101718.62
2019-06-27T10:07:50.420Z,101736.13
2019-06-27T10:10:20.660Z,101729.77
2019-06-27T10:12:50.458Z,101731.42
2019-06-27T10:15:20.238Z,101729.77
2019-06-27T10:17:49.845Z,101729.77
2019-06-27T10:20:19.474Z,101728.67
2019-06-27T10:22:49.630Z,101732.68
2019-06-27T10:25:19.361Z,101745.37
2019-06-27T10:27:49.120Z,101745.37
2019-06-27T10:30:20.529Z,101755.22
2019-06-27T10:32:59.010Z,101754.53
2019-06-27T10:35:21.772Z,101754.53
2019-06-27T10:37:51.606Z,101758.64
2019-06-27T10:40:21.608Z,101756.28
2019-06-27T10:42:51.254Z,101761.22
2019-06-27T10:45:22.893Z,101761.22
2019-06-27T10:47:52.650Z,101759.80
2019-06-27T10:50:22.659Z,101756.15
2019-06-27T10:52:52.439Z,101766.30
2019-06-27T10:55:22.139Z,101766.30
2019-06-27T10:57:54.703Z,101770.54
2019-06-27T11:00:59.699Z,101768.52
2019-06-27T11:03:33.354Z,101770.17
2019-06-27T11:06:03.115Z,101781.58
2019-06-27T11:08:32.912Z,101777.92
2019-06-27T11:11:02.594Z,101787.16
2019-06-27T11:13:32.334Z,101785.17
2019-06-27T11:16:02.074Z,101785.17
2019-06-27T11:18:31.733Z,101773.40
2019-06-27T11:21:01.678Z,101782.53
2019-06-27T11:23:31.307Z,101778.19
2019-06-27T11:26:02.419Z,101777.45
2019-06-27T11:28:32.189Z,101777.59
2019-06-27T11:31:02.717Z,101780.05
2019-06-27T11:33:33.308Z,101777.83
2019-06-27T11:36:03.074Z,101779.64
2019-06-27T11:38:32.724Z,101774.83
2019-06-27T11:41:02.374Z,101779.72
2019-06-27T11:43:32.112Z,101766.09
2019-06-27T11:46:01.752Z,101775.10
2019-06-27T11:48:31.437Z,101785.11
2019-06-27T11:51:02.293Z,101785.11
2019-06-27T11:53:32.027Z,101789.05
2019-06-27T11:56:01.670Z,101791.41
2019-06-27T11:58:31.523Z,101787.34
2019-06-27T12:01:02.010Z,101791.47
2019-06-27T12:03:47.887Z,101791.47
2019-06-27T12:06:03.323Z,101790.63
2019-06-27T12:08:33.312Z,101794.97
2019-06-27T12:11:03.000Z,101800.73
2019-06-27T12:13:32.821Z,101789.57
2019-06-27T12:16:02.894Z,101792.39
2019-06-27T12:18:32.494Z,101795.34
2019-06-27T12:21:05.732Z,101795.58
2019-06-27T12:23:34.333Z,101799.86
2019-06-27T12:26:26.737Z,101797.13
2019-06-27T12:29:00.364Z,101800.63
2019-06-27T12:31:30.064Z,101808.59
2019-06-27T12:34:06.926Z,101802.55
2019-06-27T12:36:32.693Z,101801.24
2019-06-27T12:39:06.377Z,101801.66
2019-06-27T12:41:36.031Z,101800.63
2019-06-27T12:44:06.243Z,101794.17
2019-06-27T12:46:35.952Z,101790.59
2019-06-27T12:49:05.576Z,101796.39
2019-06-27T12:51:35.201Z,101786.72
2019-06-27T12:54:04.879Z,101794.47
2019-06-27T12:56:34.525Z,101780.11
2019-06-27T12:59:04.697Z,101791.08
2019-06-27T13:01:34.379Z,101793.91
2019-06-27T13:04:04.477Z,101792.81
2019-06-27T13:06:34.110Z,101789.64
2019-06-27T13:09:05.150Z,101800.95
2019-06-27T13:11:34.830Z,101801.44
2019-06-27T13:14:05.132Z,101801.56
2019-06-27T13:16:34.825Z,101796.03
2019-06-27T13:22:29.384Z,101800.52
2019-06-27T13:25:00.665Z,101805.00
2019-06-27T13:27:30.384Z,101798.47
2019-06-27T13:30:01.700Z,101804.89
2019-06-27T13:32:31.443Z,101802.92
2019-06-27T13:35:01.068Z,101804.45
2019-06-27T13:37:30.871Z,101801.87
2019-06-27T13:40:04.457Z,101805.27
2019-06-27T13:42:31.836Z,101809.75
2019-06-27T13:45:01.551Z,101806.39
2019-06-27T13:47:31.270Z,101806.19
2019-06-27T13:50:00.906Z,101801.20
2019-06-27T13:52:30.703Z,101804.25
2019-06-27T13:55:00.414Z,101807.16
2019-06-27T13:57:30.614Z,101807.75
2019-06-27T14:00:01.432Z,101808.22
2019-06-27T14:02:31.306Z,101806.83
2019-06-27T14:05:01.002Z,101809.05
2019-06-27T14:07:30.806Z,101804.11
2019-06-27T14:10:00.685Z,101807.53
2019-06-27T14:12:30.907Z,101804.62
2019-06-27T14:15:02.290Z,101794.65
2019-06-27T14:17:31.993Z,101814.64
2019-06-27T14:20:07.959Z,101802.55
2019-06-27T14:22:37.730Z,101807.72
2019-06-27T14:25:07.421Z,101802.28
2019-06-27T14:27:37.303Z,101802.28
2019-06-27T14:30:09.270Z,101797.59
2019-06-27T14:32:39.061Z,101798.55
2019-06-27T14:35:15.916Z,101805.61
2019-06-27T14:37:40.292Z,101809.62
2019-06-27T14:40:11.418Z,101813.14
2019-06-27T14:42:41.229Z,101811.38
2019-06-27T14:45:11.096Z,101806.66
2019-06-27T14:47:40.760Z,101803.98
2019-06-27T14:50:11.234Z,101803.13
2019-06-27T14:52:40.955Z,101795.49
2019-06-27T14:55:11.527Z,101793.97
2019-06-27T14:57:41.226Z,101796.33
2019-06-27T15:00:12.938Z,101784.67
2019-06-27T15:02:42.663Z,101795.04
2019-06-27T15:05:12.805Z,101794.69
2019-06-27T15:07:42.539Z,101809.41
2019-06-27T15:10:14.028Z,101796.43
2019-06-27T15:12:57.047Z,101800.33
2019-06-27T15:15:26.140Z,101799.39
2019-06-27T15:17:57.482Z,101807.02
2019-06-27T15:20:27.171Z,101809.86
2019-06-27T15:22:56.798Z,101797.88
2019-06-27T15:25:28.357Z,101799.05
2019-06-27T15:27:58.002Z,101797.86
2019-06-27T15:30:27.955Z,101806.44
2019-06-27T15:32:57.810Z,101803.73
2019-06-27T15:35:27.479Z,101806.55
2019-06-27T15:38:00.083Z,101803.84
2019-06-27T15:40:29.820Z,101796.25
2019-06-27T15:42:59.430Z,101791.73
2019-06-27T15:45:29.078Z,101785.57
2019-06-27T15:47:58.828Z,101790.86
2019-06-27T15:50:28.586Z,101789.20
2019-06-27T15:52:58.269Z,101793.55
2019-06-27T15:55:27.923Z,101789.67
2019-06-27T15:57:57.550Z,101782.00
2019-06-27T16:00:27.245Z,101789.20
2019-06-27T16:02:56.906Z,101791.65
2019-06-27T16:05:26.695Z,101800.83
2019-06-27T16:07:56.348Z,101798.97
2019-06-27T16:10:26.153Z,101806.59
2019-06-27T16:12:56.260Z,101805.67
2019-06-27T16:15:26.869Z,101803.05
2019-06-27T16:17:56.878Z,101816.29
2019-06-27T16:20:27.481Z,101819.02
2019-06-27T16:22:57.156Z,101815.67
2019-06-27T16:25:26.837Z,101819.81
2019-06-27T16:27:56.453Z,101809.69
2019-06-27T16:30:26.248Z,101826.95
2019-06-27T16:32:55.971Z,101821.57
2019-06-27T16:35:25.714Z,101827.36
2019-06-27T16:37:57.020Z,101827.83
2019-06-27T16:40:26.755Z,101821.73
2019-06-27T16:42:58.077Z,101825.84
2019-06-27T16:45:27.658Z,101826.06
2019-06-27T16:47:57.363Z,101830.62
2019-06-27T16:50:27.233Z,101831.63
2019-06-27T16:52:57.084Z,101833.51
2019-06-27T16:55:28.412Z,101824.28
2019-06-27T16:57:58.131Z,101834.80
2019-06-27T17:00:27.771Z,101836.09
2019-06-27T17:02:58.996Z,101845.89
2019-06-27T17:05:30.281Z,101837.73
2019-06-27T17:07:59.985Z,101845.19
2019-06-27T17:10:29.738Z,101851.31
2019-06-27T17:12:59.433Z,101846.38
2019-06-27T17:15:29.080Z,101846.59
2019-06-27T17:18:16.712Z,101850.45
2019-06-27T17:20:46.368Z,101857.31
2019-06-27T17:23:16.331Z,101847.30
2019-06-27T17:25:46.022Z,101852.82
2019-06-27T17:28:15.625Z,101850.23
2019-06-27T17:30:45.268Z,101841.77
2019-06-27T17:33:14.973Z,101842.22
2019-06-27T17:35:44.976Z,101837.50
2019-06-27T17:38:14.963Z,101837.50
2019-06-27T17:40:44.695Z,101837.84
2019-06-27T17:43:17.585Z,101837.47
2019-06-27T17:45:47.317Z,101840.66
2019-06-27T17:48:19.985Z,101842.05
2019-06-27T17:50:49.635Z,101839.20
2019-06-27T17:53:19.303Z,101832.96
2019-06-27T17:55:49.005Z,101832.96
2019-06-27T17:58:18.642Z,101834.36
2019-06-27T18:00:48.281Z,101838.38
2019-06-27T18:03:17.994Z,101832.17
2019-06-27T18:05:47.662Z,101827.46
2019-06-27T18:08:17.584Z,101830.88
2019-06-27T18:10:49.230Z,101835.81
2019-06-27T18:13:18.928Z,101835.81
2019-06-27T18:15:48.550Z,101834.39
2019-06-27T18:18:18.216Z,101828.36
2019-06-27T18:20:47.906Z,101828.36
2019-06-27T18:23:17.544Z,101837.04
2019-06-27T18:25:47.279Z,101843.94
2019-06-27T18:28:16.914Z,101840.97
2019-06-27T18:30:46.542Z,101840.97
2019-06-27T18:33:16.316Z,101843.23
2019-06-27T18:35:45.959Z,101848.40
2019-06-27T18:38:15.587Z,101846.84
2019-06-27T18:40:47.278Z,101831.73
2019-06-27T18:43:16.956Z,101831.73
2019-06-27T18:45:46.650Z,101836.89
2019-06-27T18:48:16.380Z,101839.00
2019-06-27T18:50:47.656Z,101843.89
2019-06-27T18:53:17.365Z,101843.89
2019-06-27T18:55:47.224Z,101844.81
2019-06-27T18:58:17.233Z,101852.23
2019-06-27T19:00:46.900Z,101857.72
2019-06-27T19:03:17.291Z,101858.26
2019-06-27T19:05:46.902Z,101855.88
2019-06-27T19:08:19.088Z,101861.97
2019-06-27T19:10:50.336Z,101865.16
2019-06-27T19:13:19.997Z,101860.28
2019-06-27T19:15:49.658Z,101870.18
2019-06-27T19:18:37.049Z,101881.20
2019-06-27T19:21:08.479Z,101878.25
2019-06-27T19:23:54.831Z,101872.62
2019-06-27T19:26:27.611Z,101872.62
2019-06-27T19:28:57.251Z,101870.08
2019-06-27T19:31:27.053Z,101862.59
2019-06-27T19:33:56.908Z,101854.39
2019-06-27T19:36:26.573Z,101866.26
2019-06-27T19:38:56.329Z,101851.34
2019-06-27T19:41:25.943Z,101856.98
2019-06-27T19:43:55.645Z,101870.15
2019-06-27T19:46:25.367Z,101872.20
2019-06-27T19:48:54.992Z,101883.02
2019-06-27T19:51:24.653Z,101881.59
2019-06-27T19:53:57.883Z,101891.97
2019-06-27T19:56:28.560Z,101891.09
2019-06-27T19:58:58.267Z,101886.69
2019-06-27T20:01:28.031Z,101883.48
2019-06-27T20:03:57.904Z,101888.47
2019-06-27T20:06:27.618Z,101891.63
2019-06-27T20:08:57.286Z,101891.05
2019-06-27T20:11:26.928Z,101890.50
2019-06-27T20:13:56.553Z,101890.96
2019-06-27T20:16:29.295Z,101894.58
2019-06-27T20:18:58.919Z,101895.12
2019-06-27T20:21:28.579Z,101897.70
2019-06-27T20:23:58.417Z,101894.95
2019-06-27T20:26:28.121Z,101886.95
2019-06-27T20:28:58.087Z,101901.14
2019-06-27T20:31:27.785Z,101898.19
2019-06-27T20:33:57.531Z,101910.54
2019-06-27T20:36:27.235Z,101908.70
2019-06-27T20:38:56.938Z,101909.36
2019-06-27T20:41:29.363Z,101912.14
2019-06-27T20:43:58.350Z,101912.80
2019-06-27T20:46:28.035Z,101916.03
2019-06-27T20:48:57.660Z,101918.61
2019-06-27T20:51:27.396Z,101914.40
2019-06-27T20:53:57.808Z,101912.82
2019-06-27T20:56:30.320Z,101914.69
2019-06-27T20:58:59.020Z,101921.56
2019-06-27T21:01:31.478Z,101924.49
2019-06-27T21:04:00.079Z,101928.24
2019-06-27T21:06:29.858Z,101921.08
2019-06-27T21:08:59.572Z,101919.36
2019-06-27T21:11:29.379Z,101926.80
2019-06-27T21:13:59.069Z,101919.18
2019-06-27T21:16:28.887Z,101928.92
2019-06-27T21:18:58.522Z,101918.16
2019-06-27T21:21:29.858Z,101911.17
2019-06-27T21:24:00.612Z,101917.23
2019-06-27T21:26:30.285Z,101916.14
2019-06-27T21:29:00.662Z,101918.61
2019-06-27T21:31:30.394Z,101914.09
2019-06-27T21:34:00.139Z,101916.84
2019-06-27T21:36:29.797Z,101916.09
2019-06-27T21:39:07.484Z,101924.30
2019-06-27T21:41:30.952Z,101926.84
2019-06-27T21:44:00.846Z,101946.19
2019-06-27T21:46:30.720Z,101943.95
2019-06-27T21:49:00.381Z,101946.24
2019-06-27T21:51:30.072Z,101936.93
2019-06-27T21:53:59.773Z,101939.02
2019-06-27T21:56:29.404Z,101939.65
2019-06-27T21:58:59.063Z,101947.47
2019-06-27T22:01:28.836Z,101938.53
2019-06-27T22:03:59.533Z,101937.58
2019-06-27T22:06:29.227Z,101938.78
2019-06-27T22:08:58.958Z,101947.48
2019-06-27T22:11:28.667Z,101955.03
2019-06-27T22:13:58.404Z,101950.03
2019-06-27T22:16:28.172Z,101940.70
2019-06-27T22:18:57.881Z,101945.20
2019-06-27T22:21:27.683Z,101950.58
2019-06-27T22:23:57.396Z,101947.66
2019-06-27T22:26:27.080Z,101945.03
2019-06-27T22:28:56.716Z,101944.95
2019-06-27T22:31:26.452Z,101939.70
2019-06-27T22:33:56.114Z,101936.03
2019-06-27T22:36:25.769Z,101941.74
2019-06-27T22:39:13.302Z,101954.64
2019-06-27T22:42:00.742Z,101952.18
2019-06-27T22:44:48.430Z,101941.43
2019-06-27T22:47:36.401Z,101944.09
2019-06-27T22:50:09.279Z,101940.34
2019-06-27T22:52:46.761Z,101934.18
2019-06-27T22:55:30.300Z,101942.00
2019-06-27T22:57:59.927Z,101946.16
2019-06-27T23:00:29.589Z,101946.70
2019-06-27T23:02:59.286Z,101944.98
2019-06-27T23:05:29.098Z,101941.97
2019-06-27T23:07:58.757Z,101944.80
2019-06-27T23:10:29.036Z,101948.67
2019-06-27T23:12:58.694Z,101951.74
2019-06-27T23:15:28.626Z,101950.62
2019-06-27T23:17:58.303Z,101951.56
2019-06-27T23:20:27.968Z,101953.11
2019-06-27T23:22:57.626Z,101950.08
2019-06-27T23:25:27.305Z,101952.73
2019-06-27T23:27:57.050Z,101947.52
2019-06-27T23:30:26.683Z,101940.33
2019-06-27T23:32:56.498Z,101934.00
2019-06-27T23:35:26.201Z,101931.95
2019-06-27T23:37:55.842Z,101927.95
2019-06-27T23:40:25.580Z,101930.06
2019-06-27T23:42:55.496Z,101930.34
2019-06-27T23:45:25.131Z,101926.30
2019-06-27T23:47:54.886Z,101921.15
2019-06-27T23:50:24.531Z,101924.18
2019-06-27T23:52:55.002Z,101932.83
2019-06-27T23:55:24.705Z,101929.53
2019-06-27T23:57:54.368Z,101927.33
